x

Buoy E01 - Central Maine Shelf (44032) Wave Buoy

7:04am - Sun 25th Sep 2016 All times are EDT. -4 hours from GMT.

  • Sig Wave height 3.0ft
  • Peak Period 4s
  • Wind
    22mph, 27mph gusts
  • Sea Temp 57°f
  • 空気 Temp 51°f
  • Sea Pressure 1017.2mb
  • Buoy E01 - Central Maine Shelf
  • Buoy E01 - Central Maine Shelf

More Historic Weather Station data

Upgrade to MSW Pro to gain access to the past 30 days of data for over 8000 Wavebouys and Weather Stations around the globe.

Join Pro

Comparision Forecast

View Surf forecast
   
Sun 09/25 7:04am 3ft 4s 22 27 mph 1017.2mb 57f 51f
6:04am 3.5ft 4s 22 27 mph 1017.1mb 57f 52f
5:04am 2ft 3s 18 22 mph 1017.1mb 57f 51f
4:04am 2ft 3s 20 25 mph 1017.2mb 58f 52f
3:04am 1.6ft 3s 16 20 mph 1017.3mb 58f 52f
2:04am 2.5ft 4s 18 20 mph 1017.4mb 58f 52f
1:04am 3.5ft 4s 22 29 mph 1017.4mb 58f 54f
12:04am 2.5ft 3s 22 27 mph 1017.3mb 59f 54f
Sat 09/24 11:04pm 2ft 3s 20 25 mph 1016.9mb 59f 57f
10:04pm 1.6ft 4s 13 18 mph 1016.6mb 59f 58f
9:04pm 1.6ft 3s 16 18 mph 1016.2mb 59f 59f
8:04pm 2.5ft 11s 13 16 mph 1016.5mb 59f 59f
7:04pm  -   -  16 18 mph 1015.9mb 59f 60f
6:04pm  -   -  16 18 mph 1015.7mb 59f 60f
5:04pm 2.5ft 3s 16 22 mph 1015.5mb 59f 61f
4:04pm 1.6ft 3s 16 18 mph 1015.9mb 59f 60f
3:04pm  -   -  13 16 mph 1016.2mb 58f 60f
2:04pm 2.5ft 11s 9 11 mph 1016.8mb 58f 59f
1:04pm  -   -  13 18 mph 1017.3mb 58f 58f
12:04pm 2.5ft 11s 7 9 mph 1018.3mb 58f 57f
11:04am  -   -  11 16 mph 1018.7mb 58f 55f
10:04am 3ft 11s 11 13 mph 1018.8mb 58f 54f
9:04am 4ft 11s 16 18 mph 1018.7mb 58f 53f
8:04am 2ft 3s 18 20 mph 1019mb 59f 53f
7:04am 2ft 3s 18 20 mph 1018.5mb 58f 54f
6:04am 1.3ft 3s 13 16 mph 1018.4mb 59f 53f
5:04am 2.5ft 11s 11 13 mph 1018mb 59f 54f
4:04am 1.6ft 3s 9 11 mph 1017.4mb 59f 55f
3:04am  -   -  16 18 mph 1018.4mb 59f 55f
2:04am 3.5ft 11s 11 13 mph 1018.4mb 59f 55f
1:04am 3.5ft 11s 13 16 mph 1018.4mb 59f 56f
12:04am  -   -  13 16 mph 1018mb 59f 56f
Fri 09/23 11:04pm 3ft 11s 16 18 mph 1017.7mb 59f 57f
10:04pm 3ft 11s 13 16 mph 1017.6mb 59f 57f
9:04pm 3ft 11s 16 18 mph 1017.6mb 59f 58f
8:04pm 2ft 3s 16 18 mph 1017.1mb 59f 58f
7:04pm 2.5ft 3s 20 22 mph 1016.6mb 59f 59f
6:04pm 2.5ft 4s 20 22 mph 1016mb 59f 59f
5:04pm 2.5ft 3s 18 20 mph 1015.5mb 60f 59f
4:04pm 2.5ft 3s 18 20 mph 1014.9mb 61f 60f
3:04pm 2.5ft 3s 20 25 mph 1014.3mb 61f 61f
2:04pm 3.5ft 11s 4 7 mph 1013.4mb 62f 63f
1:04pm 3ft 8s 11 13 mph 1014.2mb 61f 63f
12:04pm 2.5ft 5s 11 13 mph 1013.8mb 61f 63f
11:04am 2.5ft 5s 11 13 mph 1013.8mb 61f 63f
10:04am 2.5ft 4s 13 18 mph 1013.9mb 62f 64f
9:04am 2.5ft 5s 18 20 mph 1014.7mb 61f 64f
8:04am 3ft 5s 16 18 mph 1014.6mb 61f 65f
7:04am 3ft 5s 16 18 mph 1014.1mb 61f 65f
6:04am 3ft 5s 16 22 mph 1014.1mb 61f 65f
5:04am 3ft 4s 18 20 mph 1014.3mb 61f 65f
4:04am 3ft 3s 18 22 mph 1014.6mb 62f 65f
3:04am 2ft 4s 13 16 mph 1015.2mb 62f 65f
2:04am 2.5ft 4s 16 18 mph 1015.8mb 62f 65f
1:04am 1.3ft 3s 11 13 mph 1016.6mb 62f 64f
12:04am 1ft 5s 9 11 mph 1017.2mb 62f 64f
Thu 09/22 11:04pm 2ft 8s 9 11 mph 1017.9mb 63f 64f
10:04pm 2.5ft 11s 9
mph
1018.2mb 63f 64f
9:04pm 1.6ft 8s 7
mph
1018.5mb 63f 64f
8:04pm 2ft 11s 9
mph
1018.8mb 63f 64f
7:04pm 1.6ft 8s 7 9 mph 1018.8mb 63f 64f
6:04pm 1.6ft 11s 9
mph
1018.8mb 63f 66f
5:04pm 2ft 11s 7 9 mph 1018.9mb 63f 66f
4:04pm 1.6ft 11s 7
mph
1019.3mb 63f 65f
3:04pm 1.6ft 11s 7 9 mph 1019.6mb 64f 65f
2:04pm 1.6ft 6s 7 9 mph 1020mb 64f 65f
1:04pm 2ft 11s 7 9 mph 1020.6mb 65f 65f
12:04pm 1.6ft 11s 2 4 mph 1020.9mb 62f 68f
11:04am 1.6ft 11s 2
mph
1021.8mb 62f 66f
10:04am 2ft 11s 2 4 mph 1022mb 62f 64f
9:04am 1.6ft 11s  -  2 mph 1021.9mb 61f 65f
8:04am 2ft 11s 7 9 mph 1021.3mb 61f 66f
7:04am 1.6ft 11s 9 11 mph 1020.9mb 61f 66f
6:04am 1.6ft 11s 2
mph
1020.2mb 61f 63f
5:04am 1.6ft 11s 7
mph
1019.8mb 61f 65f
4:04am 1.6ft 6s 4
mph
1019.6mb 61f 64f
3:04am 2ft 8s 9
mph
1019.2mb 62f 64f
2:04am 2ft 11s 9 11 mph 1019.4mb 62f 64f
1:04am 2.5ft 6s 7 9 mph 1019.5mb 62f 64f
12:04am 1.3ft 6s 7
mph
1019.6mb 62f 64f
Wed 09/21 11:04pm 1.3ft 3s 9
mph
1019.6mb 62f 64f
10:04pm 2ft 8s 7 9 mph 1019.5mb 62f 65f
9:04pm 1.6ft 3s 11 16 mph 1019.5mb 61f 65f
8:04pm 1.3ft 3s 9 11 mph 1019.2mb 62f 65f
7:04pm 2.5ft 11s 16 18 mph 1019mb 62f 66f
6:04pm 1.3ft 5s 11 13 mph 1018.8mb 62f 66f
5:04pm 2ft 8s 9 11 mph 1018.3mb 62f 66f
4:04pm 1.6ft 11s 9
mph
1018.3mb 63f 66f
3:04pm 1.6ft 6s 9
mph
1018.4mb 63f 67f
2:04pm 1.6ft 6s 9 11 mph 1018.7mb 63f 65f
1:04pm 2ft 6s 4 7 mph 1019.5mb 63f 65f